sensor_id;sensor_type;location;lat;lon;timestamp;pressure;altitude;pressure_sealevel;temperature
72278;BMP280;61204;49.980;8.358;2023-04-25T00:01:30;99827.34;;;8.09
72278;BMP280;61204;49.980;8.358;2023-04-25T00:03:58;99832.97;;;8.11
72278;BMP280;61204;49.980;8.358;2023-04-25T00:06:24;99845.34;;;8.02
72278;BMP280;61204;49.980;8.358;2023-04-25T00:08:52;99838.00;;;7.95
72278;BMP280;61204;49.980;8.358;2023-04-25T00:11:18;99842.47;;;8.00
72278;BMP280;61204;49.980;8.358;2023-04-25T00:13:43;99838.31;;;7.99
72278;BMP280;61204;49.980;8.358;2023-04-25T00:16:11;99830.38;;;7.94
72278;BMP280;61204;49.980;8.358;2023-04-25T00:18:39;99837.59;;;7.89
72278;BMP280;61204;49.980;8.358;2023-04-25T00:21:05;99824.09;;;7.91
72278;BMP280;61204;49.980;8.358;2023-04-25T00:23:31;99837.75;;;7.91
72278;BMP280;61204;49.980;8.358;2023-04-25T00:25:56;99842.31;;;7.88
72278;BMP280;61204;49.980;8.358;2023-04-25T00:28:22;99836.28;;;8.00
72278;BMP280;61204;49.980;8.358;2023-04-25T00:30:47;99854.97;;;8.03
72278;BMP280;61204;49.980;8.358;2023-04-25T00:33:15;99846.19;;;8.05
72278;BMP280;61204;49.980;8.358;2023-04-25T00:35:40;99845.91;;;8.01
72278;BMP280;61204;49.980;8.358;2023-04-25T00:38:07;99843.78;;;7.99
72278;BMP280;61204;49.980;8.358;2023-04-25T00:40:32;99840.16;;;7.97
72278;BMP280;61204;49.980;8.358;2023-04-25T00:42:58;99841.28;;;7.94
72278;BMP280;61204;49.980;8.358;2023-04-25T00:45:26;99841.19;;;7.92
72278;BMP280;61204;49.980;8.358;2023-04-25T00:47:56;99839.91;;;7.93
72278;BMP280;61204;49.980;8.358;2023-04-25T00:50:22;99829.25;;;7.97
72278;BMP280;61204;49.980;8.358;2023-04-25T00:52:49;99826.34;;;8.04
72278;BMP280;61204;49.980;8.358;2023-04-25T00:55:15;99825.34;;;8.09
72278;BMP280;61204;49.980;8.358;2023-04-25T00:57:41;99824.38;;;8.14
72278;BMP280;61204;49.980;8.358;2023-04-25T01:00:07;99822.91;;;8.13
72278;BMP280;61204;49.980;8.358;2023-04-25T01:02:36;99830.09;;;8.18
72278;BMP280;61204;49.980;8.358;2023-04-25T01:05:02;99825.06;;;8.15
72278;BMP280;61204;49.980;8.358;2023-04-25T01:07:31;99825.63;;;8.13
72278;BMP280;61204;49.980;8.358;2023-04-25T01:09:56;99821.03;;;8.16
72278;BMP280;61204;49.980;8.358;2023-04-25T01:12:23;99823.66;;;8.14
72278;BMP280;61204;49.980;8.358;2023-04-25T01:14:48;99826.38;;;8.14
72278;BMP280;61204;49.980;8.358;2023-04-25T01:17:14;99833.81;;;8.13
72278;BMP280;61204;49.980;8.358;2023-04-25T01:19:41;99829.25;;;8.06
72278;BMP280;61204;49.980;8.358;2023-04-25T01:22:07;99831.13;;;8.04
72278;BMP280;61204;49.980;8.358;2023-04-25T01:24:35;99826.50;;;8.06
72278;BMP280;61204;49.980;8.358;2023-04-25T01:27:02;99824.06;;;8.10
72278;BMP280;61204;49.980;8.358;2023-04-25T01:29:28;99829.53;;;8.10
72278;BMP280;61204;49.980;8.358;2023-04-25T01:31:55;99822.91;;;8.13
72278;BMP280;61204;49.980;8.358;2023-04-25T01:34:23;99827.19;;;8.16
72278;BMP280;61204;49.980;8.358;2023-04-25T01:36:49;99820.75;;;8.12
72278;BMP280;61204;49.980;8.358;2023-04-25T01:39:16;99823.91;;;8.08
72278;BMP280;61204;49.980;8.358;2023-04-25T01:41:42;99823.78;;;8.06
72278;BMP280;61204;49.980;8.358;2023-04-25T01:44:09;99831.13;;;8.04
72278;BMP280;61204;49.980;8.358;2023-04-25T01:46:35;99833.25;;;8.15
72278;BMP280;61204;49.980;8.358;2023-04-25T01:49:00;99829.25;;;8.06
72278;BMP280;61204;49.980;8.358;2023-04-25T01:51:27;99823.63;;;8.04
72278;BMP280;61204;49.980;8.358;2023-04-25T01:53:53;99824.50;;;8.07
72278;BMP280;61204;49.980;8.358;2023-04-25T01:56:20;99824.34;;;8.05
72278;BMP280;61204;49.980;8.358;2023-04-25T01:58:45;99825.34;;;8.09
72278;BMP280;61204;49.980;8.358;2023-04-25T02:01:11;99829.53;;;8.10
72278;BMP280;61204;49.980;8.358;2023-04-25T02:03:37;99823.50;;;8.12
72278;BMP280;61204;49.980;8.358;2023-04-25T02:06:02;99830.25;;;8.11
72278;BMP280;61204;49.980;8.358;2023-04-25T02:08:28;99838.44;;;8.11
72278;BMP280;61204;49.980;8.358;2023-04-25T02:10:53;99833.25;;;8.05
72278;BMP280;61204;49.980;8.358;2023-04-25T02:13:19;99832.25;;;8.01
72278;BMP280;61204;49.980;8.358;2023-04-25T02:15:44;99829.81;;;8.05
72278;BMP280;61204;49.980;8.358;2023-04-25T02:18:10;99835.72;;;8.01
72278;BMP280;61204;49.980;8.358;2023-04-25T02:20:36;99832.41;;;7.93
72278;BMP280;61204;49.980;8.358;2023-04-25T02:23:02;99836.72;;;7.96
72278;BMP280;61204;49.980;8.358;2023-04-25T02:25:28;99831.09;;;7.94
72278;BMP280;61204;49.980;8.358;2023-04-25T02:28:27;99834.84;;;7.89
72278;BMP280;61204;49.980;8.358;2023-04-25T02:30:52;99829.97;;;7.97
72278;BMP280;61204;49.980;8.358;2023-04-25T02:33:18;99834.69;;;7.97
72278;BMP280;61204;49.980;8.358;2023-04-25T02:35:43;99832.84;;;7.89
72278;BMP280;61204;49.980;8.358;2023-04-25T02:38:09;99834.13;;;7.88
72278;BMP280;61204;49.980;8.358;2023-04-25T02:40:34;99834.41;;;7.83
72278;BMP280;61204;49.980;8.358;2023-04-25T02:43:00;99829.81;;;7.76
72278;BMP280;61204;49.980;8.358;2023-04-25T02:45:25;99829.50;;;7.72
72278;BMP280;61204;49.980;8.358;2023-04-25T02:47:51;99828.09;;;7.71
72278;BMP280;61204;49.980;8.358;2023-04-25T02:50:16;99831.69;;;7.73
72278;BMP280;61204;49.980;8.358;2023-04-25T02:52:43;99843.91;;;7.72
72278;BMP280;61204;49.980;8.358;2023-04-25T02:55:09;99838.72;;;7.67
72278;BMP280;61204;49.980;8.358;2023-04-25T02:57:35;99839.84;;;7.63
72278;BMP280;61204;49.980;8.358;2023-04-25T03:00:01;99847.91;;;7.61
72278;BMP280;61204;49.980;8.358;2023-04-25T03:02:26;99847.50;;;7.65
72278;BMP280;61204;49.980;8.358;2023-04-25T03:04:54;99847.06;;;7.69
72278;BMP280;61204;49.980;8.358;2023-04-25T03:07:19;99846.19;;;7.66
72278;BMP280;61204;49.980;8.358;2023-04-25T03:09:45;99843.88;;;7.62
72278;BMP280;61204;49.980;8.358;2023-04-25T03:12:10;99851.91;;;7.60
72278;BMP280;61204;49.980;8.358;2023-04-25T03:14:38;99853.09;;;7.67
72278;BMP280;61204;49.980;8.358;2023-04-25T03:17:03;99855.41;;;7.71
72278;BMP280;61204;49.980;8.358;2023-04-25T03:19:29;99852.53;;;7.69
72278;BMP280;61204;49.980;8.358;2023-04-25T03:21:54;99851.78;;;7.68
72278;BMP280;61204;49.980;8.358;2023-04-25T03:24:20;99852.81;;;7.73
72278;BMP280;61204;49.980;8.358;2023-04-25T03:26:46;99851.09;;;7.77
72278;BMP280;61204;49.980;8.358;2023-04-25T03:29:14;99853.94;;;7.79
72278;BMP280;61204;49.980;8.358;2023-04-25T03:31:39;99856.97;;;7.74
72278;BMP280;61204;49.980;8.358;2023-04-25T03:34:07;99843.91;;;7.72
72278;BMP280;61204;49.980;8.358;2023-04-25T03:36:32;99850.50;;;7.69
72278;BMP280;61204;49.980;8.358;2023-04-25T03:38:58;99851.06;;;7.68
72278;BMP280;61204;49.980;8.358;2023-04-25T03:41:23;99859.81;;;7.76
72278;BMP280;61204;49.980;8.358;2023-04-25T03:43:49;99858.41;;;7.75
72278;BMP280;61204;49.980;8.358;2023-04-25T03:46:15;99865.72;;;7.72
72278;BMP280;61204;49.980;8.358;2023-04-25T03:48:40;99875.50;;;7.66
72278;BMP280;61204;49.980;8.358;2023-04-25T03:51:06;99875.63;;;7.58
72278;BMP280;61204;49.980;8.358;2023-04-25T03:53:31;99874.16;;;7.57
72278;BMP280;61204;49.980;8.358;2023-04-25T03:55:57;99876.19;;;7.56
72278;BMP280;61204;49.980;8.358;2023-04-25T03:58:22;99866.84;;;7.59
72278;BMP280;61204;49.980;8.358;2023-04-25T04:00:50;99874.34;;;7.59
72278;BMP280;61204;49.980;8.358;2023-04-25T04:03:15;99870.88;;;7.58
72278;BMP280;61204;49.980;8.358;2023-04-25T04:05:43;99888.41;;;7.65
72278;BMP280;61204;49.980;8.358;2023-04-25T04:08:10;99895.88;;;7.64
72278;BMP280;61204;49.980;8.358;2023-04-25T04:10:35;99914.88;;;7.82
72278;BMP280;61204;49.980;8.358;2023-04-25T04:13:01;99925.78;;;7.82
72278;BMP280;61204;49.980;8.358;2023-04-25T04:15:26;99932.38;;;7.79
72278;BMP280;61204;49.980;8.358;2023-04-25T04:17:52;99924.28;;;7.71
72278;BMP280;61204;49.980;8.358;2023-04-25T04:20:17;99929.66;;;7.69
72278;BMP280;61204;49.980;8.358;2023-04-25T04:22:47;99936.63;;;7.62
72278;BMP280;61204;49.980;8.358;2023-04-25T04:25:13;99937.06;;;7.59
72278;BMP280;61204;49.980;8.358;2023-04-25T04:27:38;99941.69;;;7.66
72278;BMP280;61204;49.980;8.358;2023-04-25T04:30:05;99947.81;;;7.57
72278;BMP280;61204;49.980;8.358;2023-04-25T04:32:32;99956.31;;;7.61
72278;BMP280;61204;49.980;8.358;2023-04-25T04:34:58;99962.63;;;7.54
72278;BMP280;61204;49.980;8.358;2023-04-25T04:37:24;99966.47;;;7.51
72278;BMP280;61204;49.980;8.358;2023-04-25T04:39:50;99972.47;;;7.49
72278;BMP280;61204;49.980;8.358;2023-04-25T04:42:15;99974.06;;;7.43
72278;BMP280;61204;49.980;8.358;2023-04-25T04:44:40;99975.91;;;7.40
72278;BMP280;61204;49.980;8.358;2023-04-25T04:47:09;99981.25;;;7.48
72278;BMP280;61204;49.980;8.358;2023-04-25T04:49:35;99986.09;;;7.49
72278;BMP280;61204;49.980;8.358;2023-04-25T04:52:01;99981.22;;;7.38
72278;BMP280;61204;49.980;8.358;2023-04-25T04:54:27;99981.47;;;7.32
72278;BMP280;61204;49.980;8.358;2023-04-25T04:56:52;99985.31;;;7.29
72278;BMP280;61204;49.980;8.358;2023-04-25T04:59:18;99985.72;;;7.26
72278;BMP280;61204;49.980;8.358;2023-04-25T05:01:43;99985.44;;;7.22
72278;BMP280;61204;49.980;8.358;2023-04-25T05:04:08;99990.88;;;7.12
72278;BMP280;61204;49.980;8.358;2023-04-25T05:06:34;99995.00;;;7.13
72278;BMP280;61204;49.980;8.358;2023-04-25T05:08:59;99996.72;;;7.08
72278;BMP280;61204;49.980;8.358;2023-04-25T05:11:25;100001.69;;;7.02
72278;BMP280;61204;49.980;8.358;2023-04-25T05:13:51;100006.41;;;7.02
72278;BMP280;61204;49.980;8.358;2023-04-25T05:16:18;100006.31;;;7.09
72278;BMP280;61204;49.980;8.358;2023-04-25T05:18:45;100010.63;;;7.13
72278;BMP280;61204;49.980;8.358;2023-04-25T05:21:11;100016.16;;;7.22
72278;BMP280;61204;49.980;8.358;2023-04-25T05:23:37;100024.78;;;7.28
72278;BMP280;61204;49.980;8.358;2023-04-25T05:26:02;100039.41;;;7.50
72278;BMP280;61204;49.980;8.358;2023-04-25T05:28:28;100035.13;;;7.57
72278;BMP280;61204;49.980;8.358;2023-04-25T05:30:53;100044.34;;;7.71
72278;BMP280;61204;49.980;8.358;2023-04-25T05:33:19;100039.53;;;7.79
72278;BMP280;61204;49.980;8.358;2023-04-25T05:35:45;100040.91;;;8.07
72278;BMP280;61204;49.980;8.358;2023-04-25T05:38:10;100045.94;;;8.21
72278;BMP280;61204;49.980;8.358;2023-04-25T05:40:36;100049.25;;;8.29
72278;BMP280;61204;49.980;8.358;2023-04-25T05:43:02;100068.69;;;8.33
72278;BMP280;61204;49.980;8.358;2023-04-25T05:45:27;100065.97;;;8.42
72278;BMP280;61204;49.980;8.358;2023-04-25T05:47:55;100067.28;;;8.70
72278;BMP280;61204;49.980;8.358;2023-04-25T05:50:20;100075.63;;;8.73
72278;BMP280;61204;49.980;8.358;2023-04-25T05:52:46;100074.91;;;8.82
72278;BMP280;61204;49.980;8.358;2023-04-25T05:55:14;100075.63;;;8.82
72278;BMP280;61204;49.980;8.358;2023-04-25T05:57:40;100077.66;;;8.82
72278;BMP280;61204;49.980;8.358;2023-04-25T06:00:07;100083.97;;;8.84
72278;BMP280;61204;49.980;8.358;2023-04-25T06:02:34;100083.41;;;8.86
72278;BMP280;61204;49.980;8.358;2023-04-25T06:05:00;100086.13;;;8.95
72278;BMP280;61204;49.980;8.358;2023-04-25T06:07:28;100089.41;;;9.04
72278;BMP280;61204;49.980;8.358;2023-04-25T06:09:55;100090.72;;;9.03
72278;BMP280;61204;49.980;8.358;2023-04-25T06:12:20;100098.03;;;9.00
72278;BMP280;61204;49.980;8.358;2023-04-25T06:14:46;100093.03;;;9.06
72278;BMP280;61204;49.980;8.358;2023-04-25T06:17:11;100092.53;;;9.19
72278;BMP280;61204;49.980;8.358;2023-04-25T06:19:36;100088.88;;;9.46
72278;BMP280;61204;49.980;8.358;2023-04-25T06:22:02;100089.31;;;9.83
72278;BMP280;61204;49.980;8.358;2023-04-25T06:24:30;100094.19;;;10.16
72278;BMP280;61204;49.980;8.358;2023-04-25T06:26:56;100087.34;;;10.48
72278;BMP280;61204;49.980;8.358;2023-04-25T06:29:21;100087.75;;;10.87
72278;BMP280;61204;49.980;8.358;2023-04-25T06:31:47;100105.41;;;11.29
72278;BMP280;61204;49.980;8.358;2023-04-25T06:34:12;100112.81;;;11.61
72278;BMP280;61204;49.980;8.358;2023-04-25T06:36:38;100114.38;;;11.88
72278;BMP280;61204;49.980;8.358;2023-04-25T06:39:03;100121.41;;;12.02
72278;BMP280;61204;49.980;8.358;2023-04-25T06:41:29;100124.72;;;12.13
72278;BMP280;61204;49.980;8.358;2023-04-25T06:43:54;100122.84;;;12.52
72278;BMP280;61204;49.980;8.358;2023-04-25T06:46:20;100118.94;;;12.95
72278;BMP280;61204;49.980;8.358;2023-04-25T06:48:45;100118.91;;;13.34
72278;BMP280;61204;49.980;8.358;2023-04-25T06:51:11;100115.25;;;13.29
72278;BMP280;61204;49.980;8.358;2023-04-25T06:53:38;100123.41;;;13.41
72278;BMP280;61204;49.980;8.358;2023-04-25T06:56:04;100131.81;;;13.04
72278;BMP280;61204;49.980;8.358;2023-04-25T06:58:33;100131.44;;;12.84
72278;BMP280;61204;49.980;8.358;2023-04-25T07:00:58;100129.84;;;12.55
72278;BMP280;61204;49.980;8.358;2023-04-25T07:03:24;100126.03;;;12.61
72278;BMP280;61204;49.980;8.358;2023-04-25T07:05:49;100130.38;;;12.77
72278;BMP280;61204;49.980;8.358;2023-04-25T07:08:15;100138.84;;;13.07
72278;BMP280;61204;49.980;8.358;2023-04-25T07:10:41;100136.09;;;13.60
72278;BMP280;61204;49.980;8.358;2023-04-25T07:13:07;100149.28;;;13.89
72278;BMP280;61204;49.980;8.358;2023-04-25T07:15:33;100147.81;;;14.02
72278;BMP280;61204;49.980;8.358;2023-04-25T07:17:59;100144.84;;;15.00
72278;BMP280;61204;49.980;8.358;2023-04-25T07:20:24;100142.25;;;14.88
72278;BMP280;61204;49.980;8.358;2023-04-25T07:22:50;100152.63;;;14.44
72278;BMP280;61204;49.980;8.358;2023-04-25T07:25:15;100163.66;;;14.44
72278;BMP280;61204;49.980;8.358;2023-04-25T07:27:42;100149.03;;;14.55
72278;BMP280;61204;49.980;8.358;2023-04-25T07:30:07;100158.16;;;14.44
72278;BMP280;61204;49.980;8.358;2023-04-25T07:32:33;100159.47;;;13.86
72278;BMP280;61204;49.980;8.358;2023-04-25T07:35:00;100155.13;;;14.24
72278;BMP280;61204;49.980;8.358;2023-04-25T07:37:26;100159.16;;;14.08
72278;BMP280;61204;49.980;8.358;2023-04-25T07:39:52;100160.78;;;13.99
72278;BMP280;61204;49.980;8.358;2023-04-25T07:42:17;100157.44;;;14.73
72278;BMP280;61204;49.980;8.358;2023-04-25T07:44:43;100157.41;;;14.87
72278;BMP280;61204;49.980;8.358;2023-04-25T07:47:08;100151.91;;;15.19
72278;BMP280;61204;49.980;8.358;2023-04-25T07:49:35;100157.59;;;15.07
72278;BMP280;61204;49.980;8.358;2023-04-25T07:52:02;100161.34;;;15.29
72278;BMP280;61204;49.980;8.358;2023-04-25T07:54:31;100173.03;;;15.43
72278;BMP280;61204;49.980;8.358;2023-04-25T07:56:57;100170.13;;;15.39
72278;BMP280;61204;49.980;8.358;2023-04-25T07:59:23;100169.09;;;15.17
72278;BMP280;61204;49.980;8.358;2023-04-25T08:01:49;100173.91;;;15.48
72278;BMP280;61204;49.980;8.358;2023-04-25T08:04:15;100175.19;;;15.45
72278;BMP280;61204;49.980;8.358;2023-04-25T08:06:41;100183.44;;;15.13
72278;BMP280;61204;49.980;8.358;2023-04-25T08:09:07;100184.16;;;15.61
72278;BMP280;61204;49.980;8.358;2023-04-25T08:11:34;100186.34;;;15.96
72278;BMP280;61204;49.980;8.358;2023-04-25T08:14:00;100180.47;;;16.22
72278;BMP280;61204;49.980;8.358;2023-04-25T08:16:26;100191.91;;;16.85
72278;BMP280;61204;49.980;8.358;2023-04-25T08:18:52;100187.00;;;17.02
72278;BMP280;61204;49.980;8.358;2023-04-25T08:21:18;100195.03;;;17.13
72278;BMP280;61204;49.980;8.358;2023-04-25T08:23:43;100206.03;;;17.11
72278;BMP280;61204;49.980;8.358;2023-04-25T08:26:08;100203.22;;;17.29
72278;BMP280;61204;49.980;8.358;2023-04-25T08:28:34;100200.22;;;17.03
72278;BMP280;61204;49.980;8.358;2023-04-25T08:30:59;100196.66;;;16.29
72278;BMP280;61204;49.980;8.358;2023-04-25T08:33:25;100202.94;;;16.14
72278;BMP280;61204;49.980;8.358;2023-04-25T08:35:52;100214.72;;;16.66
72278;BMP280;61204;49.980;8.358;2023-04-25T08:38:18;100219.16;;;17.48
72278;BMP280;61204;49.980;8.358;2023-04-25T08:40:45;100215.34;;;17.99
72278;BMP280;61204;49.980;8.358;2023-04-25T08:43:19;100215.72;;;18.77
72278;BMP280;61204;49.980;8.358;2023-04-25T08:45:45;100221.50;;;18.61
72278;BMP280;61204;49.980;8.358;2023-04-25T08:48:13;100226.53;;;18.91
72278;BMP280;61204;49.980;8.358;2023-04-25T08:53:09;100224.59;;;18.95
72278;BMP280;61204;49.980;8.358;2023-04-25T08:55:43;100231.16;;;19.06
72278;BMP280;61204;49.980;8.358;2023-04-25T08:58:13;100235.53;;;18.89
72278;BMP280;61204;49.980;8.358;2023-04-25T09:00:40;100235.22;;;18.79
72278;BMP280;61204;49.980;8.358;2023-04-25T09:03:05;100240.31;;;18.41
72278;BMP280;61204;49.980;8.358;2023-04-25T09:05:32;100240.59;;;17.66
72278;BMP280;61204;49.980;8.358;2023-04-25T09:07:59;100244.59;;;17.43
72278;BMP280;61204;49.980;8.358;2023-04-25T09:10:28;100248.91;;;17.28
72278;BMP280;61204;49.980;8.358;2023-04-25T09:13:11;100254.06;;;17.36
72278;BMP280;61204;49.980;8.358;2023-04-25T09:18:21;100255.00;;;18.24
72278;BMP280;61204;49.980;8.358;2023-04-25T09:21:04;100268.50;;;19.01
72278;BMP280;61204;49.980;8.358;2023-04-25T09:23:38;100268.84;;;19.13
72278;BMP280;61204;49.980;8.358;2023-04-25T09:26:06;100264.81;;;19.42
72278;BMP280;61204;49.980;8.358;2023-04-25T09:28:33;100254.84;;;19.59
72278;BMP280;61204;49.980;8.358;2023-04-25T09:31:00;100266.00;;;18.87
72278;BMP280;61204;49.980;8.358;2023-04-25T09:33:27;100263.59;;;18.32
72278;BMP280;61204;49.980;8.358;2023-04-25T09:36:01;100275.59;;;17.57
72278;BMP280;61204;49.980;8.358;2023-04-25T09:38:32;100288.56;;;18.32
72278;BMP280;61204;49.980;8.358;2023-04-25T09:41:09;100288.31;;;17.84
72278;BMP280;61204;49.980;8.358;2023-04-25T09:43:36;100301.97;;;17.78
72278;BMP280;61204;49.980;8.358;2023-04-25T09:46:02;100297.34;;;17.65
72278;BMP280;61204;49.980;8.358;2023-04-25T09:48:33;100289.13;;;17.29
72278;BMP280;61204;49.980;8.358;2023-04-25T09:51:12;100292.94;;;17.20
72278;BMP280;61204;49.980;8.358;2023-04-25T09:53:42;100296.47;;;17.22
72278;BMP280;61204;49.980;8.358;2023-04-25T09:56:16;100299.06;;;17.36
72278;BMP280;61204;49.980;8.358;2023-04-25T09:58:41;100300.31;;;17.51
72278;BMP280;61204;49.980;8.358;2023-04-25T10:01:08;100314.31;;;17.17
72278;BMP280;61204;49.980;8.358;2023-04-25T10:03:36;100313.69;;;17.57
72278;BMP280;61204;49.980;8.358;2023-04-25T10:06:14;100321.34;;;17.03
72278;BMP280;61204;49.980;8.358;2023-04-25T10:08:45;100318.47;;;16.65
72278;BMP280;61204;49.980;8.358;2023-04-25T10:11:16;100328.88;;;16.49
72278;BMP280;61204;49.980;8.358;2023-04-25T10:13:43;100341.16;;;15.96
72278;BMP280;61204;49.980;8.358;2023-04-25T10:16:09;100337.66;;;15.64
72278;BMP280;61204;49.980;8.358;2023-04-25T10:18:35;100338.19;;;15.45
72278;BMP280;61204;49.980;8.358;2023-04-25T10:21:03;100347.06;;;15.14
72278;BMP280;61204;49.980;8.358;2023-04-25T10:23:31;100346.25;;;15.11
72278;BMP280;61204;49.980;8.358;2023-04-25T10:25:59;100342.88;;;15.13
72278;BMP280;61204;49.980;8.358;2023-04-25T10:28:25;100344.06;;;15.24
72278;BMP280;61204;49.980;8.358;2023-04-25T10:30:58;100347.66;;;15.71
72278;BMP280;61204;49.980;8.358;2023-04-25T10:33:32;100342.94;;;16.21
72278;BMP280;61204;49.980;8.358;2023-04-25T10:38:35;100333.06;;;16.83
72278;BMP280;61204;49.980;8.358;2023-04-25T10:41:03;100322.94;;;17.26
72278;BMP280;61204;49.980;8.358;2023-04-25T10:45:56;100325.66;;;17.06
72278;BMP280;61204;49.980;8.358;2023-04-25T10:48:27;100327.63;;;17.21
72278;BMP280;61204;49.980;8.358;2023-04-25T10:51:07;100319.69;;;16.96
72278;BMP280;61204;49.980;8.358;2023-04-25T10:53:36;100331.66;;;16.49
72278;BMP280;61204;49.980;8.358;2023-04-25T10:56:16;100327.09;;;16.40
72278;BMP280;61204;49.980;8.358;2023-04-25T10:58:44;100333.88;;;16.52
72278;BMP280;61204;49.980;8.358;2023-04-25T11:01:12;100325.63;;;16.21
72278;BMP280;61204;49.980;8.358;2023-04-25T11:03:45;100323.22;;;15.97
72278;BMP280;61204;49.980;8.358;2023-04-25T11:06:17;100328.44;;;15.89
72278;BMP280;61204;49.980;8.358;2023-04-25T11:08:53;100326.13;;;16.33
72278;BMP280;61204;49.980;8.358;2023-04-25T11:11:19;100335.00;;;16.14
72278;BMP280;61204;49.980;8.358;2023-04-25T11:13:48;100340.16;;;16.37
72278;BMP280;61204;49.980;8.358;2023-04-25T11:16:15;100330.69;;;16.93
72278;BMP280;61204;49.980;8.358;2023-04-25T11:18:42;100337.63;;;17.48
72278;BMP280;61204;49.980;8.358;2023-04-25T11:21:08;100340.69;;;17.94
72278;BMP280;61204;49.980;8.358;2023-04-25T11:23:34;100333.19;;;18.82
72278;BMP280;61204;49.980;8.358;2023-04-25T11:26:01;100334.47;;;19.00
72278;BMP280;61204;49.980;8.358;2023-04-25T11:28:28;100331.75;;;18.37
72278;BMP280;61204;49.980;8.358;2023-04-25T11:30:55;100339.06;;;17.69
72278;BMP280;61204;49.980;8.358;2023-04-25T11:33:24;100351.31;;;17.26
72278;BMP280;61204;49.980;8.358;2023-04-25T11:35:54;100350.47;;;17.21
72278;BMP280;61204;49.980;8.358;2023-04-25T11:38:24;100352.38;;;17.35
72278;BMP280;61204;49.980;8.358;2023-04-25T11:40:51;100361.03;;;16.74
72278;BMP280;61204;49.980;8.358;2023-04-25T11:43:21;100365.72;;;16.69
72278;BMP280;61204;49.980;8.358;2023-04-25T11:45:50;100366.66;;;16.11
72278;BMP280;61204;49.980;8.358;2023-04-25T11:48:17;100371.84;;;16.02
72278;BMP280;61204;49.980;8.358;2023-04-25T11:50:44;100369.53;;;15.97
72278;BMP280;61204;49.980;8.358;2023-04-25T11:53:10;100370.25;;;15.82
72278;BMP280;61204;49.980;8.358;2023-04-25T11:55:36;100383.22;;;15.63
72278;BMP280;61204;49.980;8.358;2023-04-25T11:58:03;100370.72;;;15.62
72278;BMP280;61204;49.980;8.358;2023-04-25T12:00:30;100376.28;;;15.33
72278;BMP280;61204;49.980;8.358;2023-04-25T12:02:56;100377.69;;;15.63
72278;BMP280;61204;49.980;8.358;2023-04-25T12:05:24;100378.94;;;15.60
72278;BMP280;61204;49.980;8.358;2023-04-25T12:07:55;100375.94;;;15.40
72278;BMP280;61204;49.980;8.358;2023-04-25T12:10:24;100385.47;;;15.37
72278;BMP280;61204;49.980;8.358;2023-04-25T12:12:52;100385.97;;;14.91
72278;BMP280;61204;49.980;8.358;2023-04-25T12:15:23;100388.44;;;14.98
72278;BMP280;61204;49.980;8.358;2023-04-25T12:17:53;100378.59;;;15.09
72278;BMP280;61204;49.980;8.358;2023-04-25T12:20:21;100381.59;;;15.29
72278;BMP280;61204;49.980;8.358;2023-04-25T12:22:50;100382.97;;;15.28
72278;BMP280;61204;49.980;8.358;2023-04-25T12:28:20;100380.34;;;14.88
72278;BMP280;61204;49.980;8.358;2023-04-25T12:31:01;100388.13;;;14.92
72278;BMP280;61204;49.980;8.358;2023-04-25T12:33:30;100384.13;;;15.38
72278;BMP280;61204;49.980;8.358;2023-04-25T12:36:05;100382.09;;;15.39
72278;BMP280;61204;49.980;8.358;2023-04-25T12:38:38;100377.50;;;15.59
72278;BMP280;61204;49.980;8.358;2023-04-25T12:41:06;100386.66;;;15.93
72278;BMP280;61204;49.980;8.358;2023-04-25T12:43:32;100389.94;;;15.90
72278;BMP280;61204;49.980;8.358;2023-04-25T12:45:58;100393.41;;;15.90
72278;BMP280;61204;49.980;8.358;2023-04-25T12:48:26;100386.34;;;15.71
72278;BMP280;61204;49.980;8.358;2023-04-25T12:50:54;100396.47;;;15.96
72278;BMP280;61204;49.980;8.358;2023-04-25T12:53:20;100393.25;;;16.02
72278;BMP280;61204;49.980;8.358;2023-04-25T12:55:49;100392.19;;;16.25
72278;BMP280;61204;49.980;8.358;2023-04-25T12:58:15;100388.25;;;16.14
72278;BMP280;61204;49.980;8.358;2023-04-25T13:00:42;100389.94;;;15.90
72278;BMP280;61204;49.980;8.358;2023-04-25T13:03:08;100395.28;;;15.86
72278;BMP280;61204;49.980;8.358;2023-04-25T13:05:35;100404.28;;;15.70
72278;BMP280;61204;49.980;8.358;2023-04-25T13:08:01;100401.19;;;15.05
72278;BMP280;61204;49.980;8.358;2023-04-25T13:10:29;100415.41;;;14.86
72278;BMP280;61204;49.980;8.358;2023-04-25T13:12:55;100404.88;;;14.82
72278;BMP280;61204;49.980;8.358;2023-04-25T13:15:21;100402.94;;;14.71
72278;BMP280;61204;49.980;8.358;2023-04-25T13:17:47;100406.75;;;14.64
72278;BMP280;61204;49.980;8.358;2023-04-25T13:20:12;100398.84;;;14.86
72278;BMP280;61204;49.980;8.358;2023-04-25T13:22:40;100407.88;;;14.86
72278;BMP280;61204;49.980;8.358;2023-04-25T13:25:10;100406.72;;;14.78
72278;BMP280;61204;49.980;8.358;2023-04-25T13:27:38;100406.00;;;14.91
72278;BMP280;61204;49.980;8.358;2023-04-25T13:30:05;100410.19;;;15.06
72278;BMP280;61204;49.980;8.358;2023-04-25T13:32:38;100402.78;;;15.24
72278;BMP280;61204;49.980;8.358;2023-04-25T13:35:05;100407.06;;;15.57
72278;BMP280;61204;49.980;8.358;2023-04-25T13:37:36;100401.47;;;15.25
72278;BMP280;61204;49.980;8.358;2023-04-25T13:40:03;100408.84;;;15.07
72278;BMP280;61204;49.980;8.358;2023-04-25T13:42:35;100398.72;;;15.11
72278;BMP280;61204;49.980;8.358;2023-04-25T13:45:02;100403.19;;;15.19
72278;BMP280;61204;49.980;8.358;2023-04-25T13:47:28;100414.81;;;14.88
72278;BMP280;61204;49.980;8.358;2023-04-25T13:49:55;100422.00;;;15.36
72278;BMP280;61204;49.980;8.358;2023-04-25T13:52:21;100419.41;;;15.10
72278;BMP280;61204;49.980;8.358;2023-04-25T13:54:47;100413.22;;;15.39
72278;BMP280;61204;49.980;8.358;2023-04-25T13:57:12;100419.31;;;15.38
72278;BMP280;61204;49.980;8.358;2023-04-25T13:59:38;100424.75;;;15.36
72278;BMP280;61204;49.980;8.358;2023-04-25T14:02:05;100423.13;;;15.31
72278;BMP280;61204;49.980;8.358;2023-04-25T14:04:32;100416.28;;;15.32
72278;BMP280;61204;49.980;8.358;2023-04-25T14:06:58;100425.59;;;15.25
72278;BMP280;61204;49.980;8.358;2023-04-25T14:09:23;100424.56;;;15.32
72278;BMP280;61204;49.980;8.358;2023-04-25T14:11:53;100425.56;;;15.68
72278;BMP280;61204;49.980;8.358;2023-04-25T14:14:20;100425.69;;;15.70
72278;BMP280;61204;49.980;8.358;2023-04-25T14:16:47;100425.03;;;15.42
72278;BMP280;61204;49.980;8.358;2023-04-25T14:19:17;100435.72;;;15.34